Time;durP1;ratioP1;P1;durP2;ratioP2;P2;SDS_P1;SDS_P2;PMS_P1;PMS_P2;Temp;Humidity;BMP_temperature;BMP_pressure;BME280_temperature;BME280_humidity;BME280_pressure;Samples;Min_cycle;Max_cycle;Signal;HPM_P1;HPM_P2
2022/09/06 00:00:26;;;;;;;2.78;2.58;;;24.60;59.20;;;;;;5022138;28;44707;-62
2022/09/06 00:02:53;;;;;;;3.63;2.53;;;24.60;59.20;;;;;;5022247;28;44079;-62
2022/09/06 00:05:21;;;;;;;2.22;2.13;;;24.60;59.10;;;;;;5021914;28;43428;-64
2022/09/06 00:07:48;;;;;;;2.83;2.63;;;24.60;59.10;;;;;;5021266;28;43634;-62
2022/09/06 00:10:16;;;;;;;2.53;2.33;;;24.60;59.10;;;;;;5021216;28;44885;-62
2022/09/06 00:12:43;;;;;;;2.10;2.00;;;24.50;59.10;;;;;;5021627;28;43657;-62
2022/09/06 00:15:11;;;;;;;2.67;2.47;;;24.50;59.00;;;;;;5021554;28;43594;-62
2022/09/06 00:17:38;;;;;;;2.17;2.08;;;24.50;59.00;;;;;;5021657;28;43443;-63
2022/09/06 00:20:09;;;;;;;2.58;2.38;;;24.50;59.10;;;;;;5021259;28;44690;-62
2022/09/06 00:22:37;;;;;;;2.72;2.53;;;24.50;59.00;;;;;;5020908;28;43711;-62
2022/09/06 00:25:05;;;;;;;2.60;2.40;;;24.50;59.00;;;;;;5021904;28;43407;-62
2022/09/06 00:27:33;;;;;;;2.47;2.38;;;24.50;59.00;;;;;;5027647;28;43509;-62
2022/09/06 00:30:03;;;;;;;2.63;2.42;;;24.50;59.10;;;;;;5019527;28;44381;-62
2022/09/06 00:32:31;;;;;;;2.67;2.47;;;24.50;59.10;;;;;;5021515;28;43439;-62
2022/09/06 00:34:59;;;;;;;2.63;2.42;;;24.50;59.00;;;;;;5009798;28;43450;-63
2022/09/06 00:37:26;;;;;;;2.80;2.60;;;24.50;59.00;;;;;;5021358;28;43490;-62
2022/09/06 00:39:54;;;;;;;2.60;2.40;;;24.50;59.00;;;;;;5021520;28;44934;-62
2022/09/06 00:42:21;;;;;;;2.50;2.40;;;24.50;59.00;;;;;;5020483;28;43647;-62
2022/09/06 00:44:49;;;;;;;2.40;2.30;;;24.50;59.00;;;;;;5010621;28;43495;-62
2022/09/06 00:47:17;;;;;;;2.65;2.45;;;24.40;59.00;;;;;;5021199;28;43436;-62
2022/09/06 00:49:49;;;;;;;2.55;2.35;;;24.40;59.00;;;;;;5020482;28;44683;-62
2022/09/06 00:52:18;;;;;;;2.75;2.55;;;24.40;59.00;;;;;;5024708;28;43995;-62
2022/09/06 00:54:47;;;;;;;2.70;2.50;;;24.40;58.90;;;;;;5021660;28;43374;-62
2022/09/06 00:57:16;;;;;;;2.60;2.40;;;24.40;59.00;;;;;;5020398;28;43670;-62
2022/09/06 00:59:46;;;;;;;2.63;2.40;;;24.40;59.00;;;;;;5020905;28;44824;-62
2022/09/06 01:02:14;;;;;;;2.53;2.43;;;24.40;59.00;;;;;;5020838;28;43621;-63
2022/09/06 01:04:43;;;;;;;2.55;2.35;;;24.40;58.90;;;;;;5020640;28;43392;-62
2022/09/06 01:07:29;;;;;;;2.80;2.60;;;24.40;58.90;;;;;;5021186;28;43610;-62
2022/09/06 01:10:15;;;;;;;2.75;2.55;;;24.40;58.90;;;;;;5021404;28;45066;-62
2022/09/06 01:13:02;;;;;;;2.80;2.60;;;24.40;59.00;;;;;;5033956;28;43492;-62
2022/09/06 01:15:33;;;;;;;2.80;2.60;;;24.30;58.90;;;;;;5024607;28;43484;-62
2022/09/06 01:18:24;;;;;;;2.60;2.40;;;24.30;59.00;;;;;;5025832;28;43473;-63
2022/09/06 01:20:51;;;;;;;2.88;2.50;;;24.30;58.90;;;;;;5030788;28;44986;-62
2022/09/06 01:23:56;;;;;;;2.58;2.40;;;24.30;58.90;;;;;;5024336;28;43710;-63
2022/09/06 01:26:32;;;;;;;2.35;2.20;;;24.30;58.90;;;;;;5022284;28;43492;-62
2022/09/06 01:29:01;;;;;;;2.70;2.50;;;24.30;59.00;;;;;;5024254;28;43448;-61
2022/09/06 01:32:22;;;;;;;2.95;2.75;;;24.30;58.90;;;;;;5023047;28;44959;-62
2022/09/06 01:34:57;;;;;;;2.70;2.55;;;24.30;58.90;;;;;;4974646;28;43964;-62
2022/09/06 01:37:25;;;;;;;2.70;2.55;;;24.30;59.00;;;;;;5023803;28;43484;-62
2022/09/06 01:39:52;;;;;;;2.60;2.40;;;24.30;58.90;;;;;;5013280;28;43480;-63
2022/09/06 01:42:27;;;;;;;2.30;2.20;;;24.30;59.00;;;;;;5023737;28;44964;-63
2022/09/06 01:44:58;;;;;;;2.70;2.50;;;24.30;59.00;;;;;;5024285;28;43493;-62
2022/09/06 01:47:49;;;;;;;2.80;2.60;;;24.30;58.90;;;;;;5023024;28;43472;-62
2022/09/06 01:50:19;;;;;;;2.38;2.28;;;24.30;58.90;;;;;;5023377;28;43528;-62
2022/09/06 01:53:05;;;;;;;2.45;2.25;;;24.30;59.00;;;;;;5032241;28;44981;-62
2022/09/06 01:56:09;;;;;;;2.80;2.60;;;24.30;59.00;;;;;;5023588;28;44049;-62
2022/09/06 01:58:49;;;;;;;2.80;2.60;;;24.30;59.00;;;;;;5047843;28;43466;-62
2022/09/06 02:01:22;;;;;;;2.92;2.70;;;24.30;59.00;;;;;;5023158;28;43583;-62
2022/09/06 02:03:56;;;;;;;3.20;2.55;;;24.20;59.00;;;;;;5023278;28;44883;-62
2022/09/06 02:06:29;;;;;;;2.60;2.40;;;24.30;59.20;;;;;;5022366;28;44027;-62
2022/09/06 02:09:08;;;;;;;2.60;2.42;;;24.30;59.10;;;;;;5023567;28;43450;-62
2022/09/06 02:12:01;;;;;;;2.70;2.50;;;24.20;59.00;;;;;;5024507;28;43522;-62
2022/09/06 02:15:01;;;;;;;2.92;2.72;;;24.20;59.10;;;;;;5017213;28;44973;-62
2022/09/06 02:17:33;;;;;;;2.70;2.50;;;24.20;59.10;;;;;;5006368;28;43979;-62
2022/09/06 02:20:08;;;;;;;2.20;2.10;;;24.20;59.10;;;;;;5023711;28;43509;-62
2022/09/06 02:22:41;;;;;;;2.80;2.60;;;24.20;59.10;;;;;;5020523;28;43559;-62
2022/09/06 02:25:12;;;;;;;2.50;2.30;;;24.20;59.10;;;;;;5012436;28;43690;-62
2022/09/06 02:27:39;;;;;;;2.88;2.67;;;24.20;59.10;;;;;;5027648;28;43434;-62
2022/09/06 02:30:07;;;;;;;2.85;2.65;;;24.20;59.10;;;;;;5022939;28;43471;-62
2022/09/06 02:32:42;;;;;;;2.50;2.30;;;24.20;59.10;;;;;;5022870;28;44146;-63
2022/09/06 02:35:14;;;;;;;2.92;2.72;;;24.20;59.10;;;;;;5031234;28;44976;-63
2022/09/06 02:37:43;;;;;;;2.67;2.50;;;24.20;59.10;;;;;;5022567;28;43977;-62
2022/09/06 02:40:11;;;;;;;3.15;2.60;;;24.20;59.10;;;;;;5022910;28;43497;-63
2022/09/06 02:42:40;;;;;;;2.83;2.63;;;24.10;59.20;;;;;;5022395;28;43492;-62
2022/09/06 02:45:08;;;;;;;2.80;2.60;;;24.20;59.20;;;;;;5022984;28;44712;-62
2022/09/06 02:47:36;;;;;;;2.72;2.53;;;24.10;59.10;;;;;;5018307;28;44002;-62
2022/09/06 02:50:03;;;;;;;2.50;2.40;;;24.20;59.20;;;;;;5021944;28;43496;-63
2022/09/06 02:52:31;;;;;;;2.63;2.42;;;24.10;59.10;;;;;;5025736;28;43966;-63
2022/09/06 02:54:58;;;;;;;3.00;2.80;;;24.20;59.20;;;;;;5029213;28;44728;-62
2022/09/06 02:57:26;;;;;;;2.80;2.60;;;24.10;59.10;;;;;;5021794;28;43835;-62
2022/09/06 02:59:53;;;;;;;2.70;2.50;;;24.10;59.10;;;;;;5022798;28;43412;-62
2022/09/06 03:02:21;;;;;;;2.50;2.30;;;24.10;59.10;;;;;;5022367;28;43582;-62
2022/09/06 03:04:48;;;;;;;3.08;2.70;;;24.10;59.20;;;;;;5021897;28;44763;-62
2022/09/06 03:07:16;;;;;;;2.92;2.63;;;24.10;59.10;;;;;;5024367;28;43970;-62
2022/09/06 03:09:43;;;;;;;2.80;2.60;;;24.10;59.00;;;;;;5021464;28;43459;-62
2022/09/06 03:12:11;;;;;;;2.75;2.55;;;24.10;59.10;;;;;;5023378;28;43529;-62
2022/09/06 03:14:40;;;;;;;2.75;2.55;;;24.10;59.10;;;;;;5022417;28;43784;-62
2022/09/06 03:17:07;;;;;;;2.83;2.63;;;24.00;59.10;;;;;;5021597;28;43674;-62
2022/09/06 03:19:35;;;;;;;2.60;2.40;;;24.00;59.10;;;;;;5022429;28;43410;-62
2022/09/06 03:22:02;;;;;;;2.80;2.60;;;24.00;59.10;;;;;;5021858;28;43576;-62
2022/09/06 03:24:30;;;;;;;3.20;2.90;;;24.00;59.10;;;;;;5021778;28;44949;-63
2022/09/06 03:26:57;;;;;;;3.05;2.80;;;24.00;59.10;;;;;;5022306;28;43472;-62
2022/09/06 03:29:25;;;;;;;2.88;2.67;;;24.10;59.20;;;;;;5022400;28;43459;-62
2022/09/06 03:31:52;;;;;;;2.65;2.47;;;24.00;59.10;;;;;;5023911;28;43547;-62
2022/09/06 03:34:20;;;;;;;2.60;2.40;;;24.00;59.10;;;;;;5024035;28;44710;-63
2022/09/06 03:36:47;;;;;;;2.90;2.58;;;24.00;59.10;;;;;;5026625;28;43658;-62
2022/09/06 03:39:14;;;;;;;3.00;2.80;;;24.00;59.10;;;;;;5021352;28;43462;-63
2022/09/06 03:41:42;;;;;;;3.10;2.80;;;24.00;59.10;;;;;;5033674;28;43559;-63
2022/09/06 03:44:09;;;;;;;2.75;2.60;;;24.00;59.10;;;;;;5021999;28;44046;-63
2022/09/06 03:46:37;;;;;;;3.10;2.90;;;23.90;59.10;;;;;;5021326;28;43422;-62
2022/09/06 03:49:04;;;;;;;3.10;2.90;;;23.90;59.10;;;;;;5021774;28;43500;-62
2022/09/06 03:51:32;;;;;;;2.88;2.67;;;24.00;59.10;;;;;;5032767;28;43567;-62
2022/09/06 03:53:59;;;;;;;3.10;2.90;;;23.90;59.10;;;;;;5032360;28;44635;-62
2022/09/06 03:56:27;;;;;;;2.88;2.67;;;23.90;59.10;;;;;;5021684;28;43771;-62
2022/09/06 03:58:54;;;;;;;3.00;2.80;;;23.90;59.10;;;;;;5030673;28;43412;-62
2022/09/06 04:01:22;;;;;;;3.47;2.83;;;23.90;59.20;;;;;;5029472;28;43549;-63
2022/09/06 04:03:49;;;;;;;3.13;2.92;;;23.90;59.10;;;;;;5022580;28;44956;-62
2022/09/06 04:06:17;;;;;;;2.92;2.72;;;23.90;59.10;;;;;;5020836;28;43725;-62
2022/09/06 04:08:45;;;;;;;3.10;2.90;;;23.90;59.10;;;;;;5029907;28;43444;-62
2022/09/06 04:11:12;;;;;;;3.15;2.90;;;23.90;59.80;;;;;;5026685;28;43476;-62
2022/09/06 04:13:40;;;;;;;2.90;2.70;;;23.90;59.20;;;;;;5024110;28;44355;-62
2022/09/06 04:16:07;;;;;;;3.20;3.00;;;23.90;59.10;;;;;;5021815;28;43424;-62
2022/09/06 04:18:35;;;;;;;3.40;3.20;;;23.90;59.10;;;;;;5021360;28;43502;-62
2022/09/06 04:21:03;;;;;;;3.20;3.00;;;23.90;59.10;;;;;;5024929;28;43526;-62
2022/09/06 04:23:30;;;;;;;3.30;3.10;;;23.90;59.20;;;;;;5021632;28;44969;-62
2022/09/06 04:26:03;;;;;;;3.10;2.90;;;23.90;59.20;;;;;;5021489;28;43503;-62
2022/09/06 04:28:31;;;;;;;3.25;3.05;;;23.80;59.10;;;;;;5020680;28;43427;-62
2022/09/06 04:31:00;;;;;;;3.08;2.90;;;23.80;59.10;;;;;;5017790;28;43442;-62
2022/09/06 04:33:33;;;;;;;3.90;3.38;;;23.80;59.20;;;;;;5021366;28;44680;-62
2022/09/06 04:36:02;;;;;;;3.17;2.97;;;23.80;59.20;;;;;;5020877;28;43514;-62
2022/09/06 04:38:35;;;;;;;3.30;3.10;;;23.80;59.20;;;;;;5021384;28;43490;-62
2022/09/06 04:41:03;;;;;;;3.28;3.03;;;23.80;59.30;;;;;;5021171;28;43492;-62
2022/09/06 04:43:31;;;;;;;3.60;3.30;;;23.80;59.30;;;;;;5021351;28;44974;-62
2022/09/06 04:46:10;;;;;;;3.60;3.30;;;23.80;59.30;;;;;;5023503;28;43369;-62
2022/09/06 04:48:37;;;;;;;3.55;3.25;;;23.80;59.30;;;;;;5029768;28;43493;-62
2022/09/06 04:51:05;;;;;;;3.58;3.38;;;23.80;59.30;;;;;;5024405;28;43458;-62
2022/09/06 04:53:32;;;;;;;3.17;2.97;;;23.80;59.30;;;;;;5027603;28;44929;-62
2022/09/06 04:56:00;;;;;;;3.50;3.30;;;23.80;59.30;;;;;;5024208;28;43451;-62
2022/09/06 04:58:28;;;;;;;3.45;3.25;;;23.80;59.30;;;;;;5025249;28;43475;-63
2022/09/06 05:00:55;;;;;;;3.28;3.08;;;23.80;59.30;;;;;;5025047;28;43583;-62
2022/09/06 05:03:23;;;;;;;3.50;3.30;;;23.70;59.30;;;;;;5023844;28;43628;-62
2022/09/06 05:05:51;;;;;;;3.38;3.17;;;23.80;59.30;;;;;;5024281;28;43684;-63
2022/09/06 05:08:18;;;;;;;3.33;3.13;;;23.80;59.30;;;;;;5024308;28;43508;-62
2022/09/06 05:10:49;;;;;;;3.53;3.22;;;23.80;59.30;;;;;;5022882;28;43571;-62
2022/09/06 05:13:17;;;;;;;3.40;3.10;;;23.80;59.30;;;;;;5024623;28;43804;-62
2022/09/06 05:15:44;;;;;;;3.45;3.25;;;23.70;59.30;;;;;;5023378;28;43532;-62
2022/09/06 05:18:12;;;;;;;3.30;3.10;;;23.80;59.30;;;;;;5023300;28;43484;-63
2022/09/06 05:20:42;;;;;;;3.53;3.30;;;23.80;59.30;;;;;;5023030;28;43427;-62
2022/09/06 05:23:09;;;;;;;3.55;3.25;;;23.80;59.30;;;;;;5023991;28;44963;-62
2022/09/06 05:25:37;;;;;;;3.25;3.05;;;23.80;59.30;;;;;;5023884;28;44311;-62
2022/09/06 05:28:04;;;;;;;3.40;3.20;;;23.80;59.30;;;;;;5023690;28;43434;-62
2022/09/06 05:30:32;;;;;;;3.50;3.20;;;23.80;59.30;;;;;;5022102;28;43559;-62
2022/09/06 05:32:59;;;;;;;3.78;3.47;;;23.70;59.30;;;;;;5029692;28;44983;-62
2022/09/06 05:35:27;;;;;;;3.30;3.10;;;23.80;59.30;;;;;;5024005;28;43457;-62
2022/09/06 05:37:54;;;;;;;3.63;3.33;;;23.80;59.40;;;;;;5023555;28;43519;-62
2022/09/06 05:40:22;;;;;;;3.80;3.60;;;23.80;59.40;;;;;;5023732;28;43526;-62
2022/09/06 05:42:49;;;;;;;3.20;3.00;;;23.80;59.30;;;;;;5023211;28;44700;-63
2022/09/06 05:45:17;;;;;;;3.17;2.97;;;23.70;59.30;;;;;;5023420;28;43551;-62
2022/09/06 05:47:44;;;;;;;3.92;3.60;;;23.70;59.40;;;;;;5023592;28;43443;-62
2022/09/06 05:50:12;;;;;;;3.50;3.20;;;23.70;59.50;;;;;;5023672;28;43519;-62
2022/09/06 05:52:39;;;;;;;3.60;3.30;;;23.70;59.80;;;;;;5030526;28;44972;-62
2022/09/06 05:55:07;;;;;;;3.35;3.15;;;23.70;59.50;;;;;;5026112;28;43715;-62
2022/09/06 05:57:35;;;;;;;3.90;3.47;;;23.70;59.50;;;;;;5027883;28;43436;-62
2022/09/06 06:00:04;;;;;;;3.40;3.20;;;23.70;59.50;;;;;;5026918;28;44093;-62
2022/09/06 06:02:38;;;;;;;3.53;3.30;;;23.70;59.50;;;;;;5023835;28;45067;-62
2022/09/06 06:05:06;;;;;;;3.60;3.30;;;23.70;60.20;;;;;;5023584;28;44062;-62
2022/09/06 06:07:34;;;;;;;3.60;3.40;;;23.70;59.60;;;;;;5022872;28;43476;-62
2022/09/06 06:10:03;;;;;;;3.72;3.42;;;23.70;59.60;;;;;;5023176;28;43459;-62
2022/09/06 06:12:30;;;;;;;3.28;3.08;;;23.70;59.60;;;;;;5026061;28;44577;-62
2022/09/06 06:15:04;;;;;;;3.65;3.45;;;23.70;59.60;;;;;;5023719;28;44003;-62
2022/09/06 06:17:32;;;;;;;4.13;3.75;;;23.70;59.70;;;;;;5023226;28;43487;-62
2022/09/06 06:20:00;;;;;;;3.33;3.13;;;23.70;59.80;;;;;;5022932;28;43737;-62
2022/09/06 06:22:27;;;;;;;3.95;3.65;;;23.60;59.80;;;;;;5023326;28;43800;-62
2022/09/06 06:24:54;;;;;;;3.22;3.03;;;23.70;59.70;;;;;;5023501;28;43507;-62
2022/09/06 06:27:22;;;;;;;3.72;3.42;;;23.70;59.80;;;;;;5029513;28;43507;-62
2022/09/06 06:29:51;;;;;;;3.67;3.38;;;23.70;59.80;;;;;;5022165;28;43450;-62
2022/09/06 06:32:18;;;;;;;3.28;3.08;;;23.70;59.70;;;;;;5023861;28;43738;-62
2022/09/06 06:34:47;;;;;;;3.80;3.60;;;23.70;59.80;;;;;;5033469;28;43508;-62
2022/09/06 06:37:14;;;;;;;3.83;3.53;;;23.70;59.70;;;;;;5023104;28;43540;-62
2022/09/06 06:39:42;;;;;;;3.88;3.58;;;23.70;59.80;;;;;;5026510;28;43571;-62
2022/09/06 06:42:10;;;;;;;3.40;3.20;;;23.70;59.90;;;;;;5022987;28;45037;-62
2022/09/06 06:44:47;;;;;;;3.65;3.45;;;23.70;59.70;;;;;;5022111;28;43953;-62
2022/09/06 06:47:15;;;;;;;3.92;3.70;;;23.70;59.80;;;;;;5023145;28;43591;-61
2022/09/06 06:49:42;;;;;;;3.65;3.38;;;23.70;59.80;;;;;;5022631;28;43471;-62
2022/09/06 06:52:10;;;;;;;4.15;3.75;;;23.70;59.90;;;;;;5025445;28;44672;-62
2022/09/06 06:54:37;;;;;;;4.05;3.75;;;23.70;59.90;;;;;;5023165;28;43428;-63
2022/09/06 06:57:05;;;;;;;4.20;3.80;;;23.70;59.90;;;;;;5022657;28;43447;-62
2022/09/06 06:59:33;;;;;;;3.83;3.63;;;23.70;59.80;;;;;;5024025;28;43582;-62
2022/09/06 07:02:00;;;;;;;4.00;3.60;;;23.70;59.90;;;;;;5021669;28;44719;-62
2022/09/06 07:04:28;;;;;;;4.20;3.90;;;23.70;59.90;;;;;;5022678;28;43677;-62
2022/09/06 07:06:56;;;;;;;3.97;3.67;;;23.70;59.90;;;;;;5022953;28;43442;-62
2022/09/06 07:09:43;;;;;;;4.10;3.70;;;23.70;59.80;;;;;;5021114;28;43579;-61
2022/09/06 07:12:31;;;;;;;4.53;4.13;;;23.70;59.80;;;;;;5015877;28;43916;-62
2022/09/06 07:14:58;;;;;;;3.80;3.50;;;23.70;59.80;;;;;;5023056;28;43411;-62
2022/09/06 07:17:26;;;;;;;4.32;4.03;;;23.70;60.00;;;;;;5021883;28;43508;-62
2022/09/06 07:19:54;;;;;;;4.43;3.95;;;23.70;60.00;;;;;;5022505;28;43559;-62
2022/09/06 07:22:41;;;;;;;4.60;4.20;;;23.70;60.00;;;;;;5021954;28;44138;-62
2022/09/06 07:25:11;;;;;;;4.10;3.80;;;23.60;59.90;;;;;;5021922;28;43423;-62
2022/09/06 07:27:44;;;;;;;4.53;4.13;;;23.70;60.00;;;;;;5021847;28;44073;-62
2022/09/06 07:30:18;;;;;;;4.32;3.92;;;23.70;60.00;;;;;;5021529;28;43427;-62
2022/09/06 07:32:46;;;;;;;4.90;4.45;;;23.70;60.00;;;;;;5029370;28;45109;-62
2022/09/06 07:35:14;;;;;;;4.32;4.03;;;23.70;60.00;;;;;;5022133;28;43987;-62
2022/09/06 07:37:42;;;;;;;4.05;3.75;;;23.60;59.90;;;;;;5021323;28;43528;-62
2022/09/06 07:40:10;;;;;;;3.85;3.60;;;23.70;60.00;;;;;;5021981;28;43460;-62
2022/09/06 07:42:37;;;;;;;3.80;3.60;;;23.70;60.00;;;;;;5022396;28;44700;-61
2022/09/06 07:45:05;;;;;;;4.75;4.35;;;23.70;60.00;;;;;;5020776;28;43936;-62
2022/09/06 07:47:32;;;;;;;4.22;3.88;;;23.70;59.90;;;;;;5022502;28;43416;-62
2022/09/06 07:50:21;;;;;;;4.50;4.10;;;23.70;60.00;;;;;;5021732;28;43423;-62
2022/09/06 07:53:09;;;;;;;4.47;4.18;;;23.70;60.00;;;;;;5019815;28;44658;-62
2022/09/06 07:55:42;;;;;;;4.00;3.70;;;23.60;60.00;;;;;;5021520;28;43438;-62
2022/09/06 07:58:09;;;;;;;4.35;4.05;;;23.70;60.00;;;;;;5022537;28;43543;-62
2022/09/06 08:00:39;;;;;;;4.53;4.13;;;23.70;59.90;;;;;;5024496;28;44214;-62
2022/09/06 08:03:07;;;;;;;4.80;4.40;;;23.70;59.90;;;;;;5022214;28;45286;-62
2022/09/06 08:05:35;;;;;;;4.57;4.18;;;23.70;59.90;;;;;;5020920;28;43981;-62
2022/09/06 08:08:24;;;;;;;5.43;4.82;;;23.70;59.90;;;;;;5022054;28;43459;-62
2022/09/06 08:11:12;;;;;;;4.50;4.10;;;23.70;59.90;;;;;;5027752;28;43549;-62
2022/09/06 08:13:41;;;;;;;4.85;4.45;;;23.70;59.90;;;;;;5018919;28;43802;-62
2022/09/06 08:16:10;;;;;;;5.03;4.63;;;23.80;60.00;;;;;;5020996;28;43518;-62
2022/09/06 08:18:37;;;;;;;5.20;4.70;;;23.80;60.00;;;;;;5020870;28;43478;-62
2022/09/06 08:21:14;;;;;;;5.10;4.65;;;23.80;59.90;;;;;;5022848;28;43569;-62
2022/09/06 08:23:47;;;;;;;4.78;4.38;;;23.80;59.90;;;;;;5025291;28;44957;-62
2022/09/06 08:26:15;;;;;;;4.95;4.55;;;23.80;60.00;;;;;;5027365;28;43807;-62
2022/09/06 08:28:43;;;;;;;5.38;4.93;;;23.80;60.00;;;;;;5027564;28;43438;-62
2022/09/06 08:31:15;;;;;;;6.88;5.63;;;23.80;60.00;;;;;;5024913;28;43541;-62
2022/09/06 08:33:43;;;;;;;5.63;5.13;;;23.80;60.10;;;;;;5021497;28;43782;-62
2022/09/06 08:36:11;;;;;;;5.95;5.20;;;23.80;60.00;;;;;;5024291;28;43976;-62
2022/09/06 08:38:38;;;;;;;6.63;5.78;;;23.80;60.00;;;;;;5030808;28;43482;-62
2022/09/06 08:41:11;;;;;;;5.80;5.20;;;23.80;60.00;;;;;;5024602;28;44150;-62
2022/09/06 08:43:57;;;;;;;6.32;5.82;;;23.80;60.00;;;;;;5024205;28;44954;-62
2022/09/06 08:47:09;;;;;;;6.47;5.53;;;23.80;60.00;;;;;;5020005;28;43838;-62
2022/09/06 08:49:39;;;;;;;7.15;5.78;;;23.80;60.00;;;;;;5022023;28;43530;-62
2022/09/06 08:52:17;;;;;;;5.82;5.40;;;23.80;60.00;;;;;;5027422;28;43494;-63
2022/09/06 08:54:53;;;;;;;6.20;5.65;;;23.80;60.00;;;;;;5025512;28;44998;-62
2022/09/06 08:57:53;;;;;;;5.75;5.28;;;23.80;60.00;;;;;;5026174;28;43431;-62
2022/09/06 09:00:21;;;;;;;5.90;5.40;;;23.80;60.00;;;;;;5027929;28;43637;-62
2022/09/06 09:03:20;;;;;;;5.80;5.20;;;23.80;60.00;;;;;;5027327;28;43515;-62
2022/09/06 09:05:51;;;;;;;5.13;4.72;;;23.80;59.90;;;;;;5024953;28;44045;-63
2022/09/06 09:08:43;;;;;;;5.82;5.32;;;23.90;60.00;;;;;;5023802;28;43782;-63
2022/09/06 09:11:22;;;;;;;5.85;5.35;;;23.90;60.00;;;;;;5022632;28;43508;-63
2022/09/06 09:14:17;;;;;;;5.57;5.18;;;23.90;60.00;;;;;;5026750;28;43592;-63
2022/09/06 09:17:11;;;;;;;5.90;5.38;;;23.90;60.00;;;;;;5023912;28;43741;-63
2022/09/06 09:19:42;;;;;;;5.15;4.75;;;23.90;60.10;;;;;;5023776;28;43523;-63
2022/09/06 09:22:10;;;;;;;6.10;5.50;;;23.90;60.10;;;;;;5024505;28;43520;-63
2022/09/06 09:24:38;;;;;;;5.70;5.20;;;23.90;60.10;;;;;;5023921;28;43555;-63
2022/09/06 09:27:10;;;;;;;5.45;4.95;;;23.90;60.10;;;;;;5024176;28;43805;-63
2022/09/06 09:30:02;;;;;;;5.88;5.32;;;23.90;60.10;;;;;;5023121;28;43722;-63
2022/09/06 09:32:49;;;;;;;5.93;5.43;;;23.90;60.00;;;;;;5029708;28;43494;-63
2022/09/06 09:35:33;;;;;;;6.05;5.55;;;23.90;60.10;;;;;;5024244;28;43540;-63
2022/09/06 09:38:00;;;;;;;5.90;5.15;;;23.90;60.20;;;;;;5010692;28;43800;-63
2022/09/06 09:40:56;;;;;;;5.68;5.18;;;23.90;60.10;;;;;;5023761;28;43487;-63
2022/09/06 09:43:35;;;;;;;5.70;5.20;;;23.90;60.10;;;;;;5023861;28;43589;-63
2022/09/06 09:46:23;;;;;;;5.30;4.90;;;23.90;60.20;;;;;;5024290;28;43440;-63
2022/09/06 09:49:01;;;;;;;5.60;5.10;;;23.90;60.20;;;;;;5023756;28;44828;-63
2022/09/06 09:51:30;;;;;;;5.95;5.50;;;23.90;60.30;;;;;;5031484;28;43925;-63
2022/09/06 09:54:09;;;;;;;6.43;5.80;;;23.90;60.30;;;;;;5034444;28;43453;-63
2022/09/06 09:56:42;;;;;;;5.97;5.43;;;23.90;60.40;;;;;;5023947;28;43542;-63
2022/09/06 09:59:57;;;;;;;5.78;5.20;;;23.90;60.30;;;;;;5031306;28;44023;-63
2022/09/06 10:02:26;;;;;;;6.30;5.72;;;23.90;60.40;;;;;;4955136;28;43876;-63
2022/09/06 10:05:11;;;;;;;5.80;5.30;;;23.90;60.40;;;;;;4961690;28;43515;-63
2022/09/06 10:07:52;;;;;;;5.70;5.20;;;23.90;60.40;;;;;;5001187;28;43550;-63
2022/09/06 10:10:53;;;;;;;6.20;5.60;;;23.90;60.40;;;;;;5015962;28;44385;-62
2022/09/06 10:13:28;;;;;;;6.00;5.50;;;23.90;60.30;;;;;;5022989;28;43468;-63
2022/09/06 10:15:57;;;;;;;6.15;5.65;;;23.90;60.30;;;;;;5023135;28;43397;-63
2022/09/06 10:18:32;;;;;;;6.55;5.95;;;23.90;60.30;;;;;;5023248;28;43538;-63
2022/09/06 10:21:04;;;;;;;6.32;5.75;;;23.90;60.20;;;;;;5028381;28;44944;-63
2022/09/06 10:24:03;;;;;;;6.47;5.68;;;24.00;60.30;;;;;;5023366;28;43734;-63
2022/09/06 10:26:57;;;;;;;5.82;5.32;;;23.90;60.20;;;;;;5034942;28;43452;-63
2022/09/06 10:29:54;;;;;;;5.97;5.55;;;23.90;60.20;;;;;;5025745;28;43491;-63
2022/09/06 10:32:34;;;;;;;6.70;5.80;;;24.00;60.30;;;;;;5023005;28;44980;-63
2022/09/06 10:35:19;;;;;;;6.35;5.75;;;24.00;60.30;;;;;;5013118;28;43427;-63
2022/09/06 10:38:07;;;;;;;6.13;5.63;;;24.00;60.30;;;;;;5023063;28;43485;-63
2022/09/06 10:40:46;;;;;;;6.35;5.28;;;24.00;60.30;;;;;;5021808;28;43646;-63
2022/09/06 10:43:18;;;;;;;6.20;5.70;;;24.00;60.20;;;;;;5021974;28;44121;-63
2022/09/06 10:45:55;;;;;;;6.10;5.60;;;24.00;60.20;;;;;;5022778;28;43920;-63
2022/09/06 10:48:40;;;;;;;5.68;5.18;;;24.00;60.20;;;;;;5022293;28;43446;-63
2022/09/06 10:51:19;;;;;;;5.78;5.28;;;24.10;60.20;;;;;;5023098;28;43740;-63
2022/09/06 10:53:55;;;;;;;5.93;5.15;;;24.10;60.30;;;;;;5023978;28;44988;-63
2022/09/06 10:56:42;;;;;;;6.15;5.00;;;24.10;60.20;;;;;;5030701;28;43467;-63
2022/09/06 10:59:30;;;;;;;5.25;4.85;;;24.10;60.20;;;;;;5015604;28;43510;-63
2022/09/06 11:02:37;;;;;;;5.78;5.28;;;24.10;60.20;;;;;;5022111;28;43554;-63
2022/09/06 11:05:11;;;;;;;5.32;4.82;;;24.10;60.20;;;;;;5022722;28;44001;-63
2022/09/06 11:08:06;;;;;;;5.35;4.95;;;24.10;60.20;;;;;;5021941;28;43972;-63
2022/09/06 11:10:54;;;;;;;5.53;5.03;;;24.20;60.20;;;;;;5022444;28;43619;-63
2022/09/06 11:13:25;;;;;;;5.80;5.30;;;24.20;60.20;;;;;;5025197;28;43521;-63
2022/09/06 11:15:59;;;;;;;;;;;24.20;60.10;;;;;;5021296;28;45073;-63
2022/09/06 11:18:44;;;;;;;5.60;5.03;;;24.20;60.00;;;;;;5022387;28;44607;-63
2022/09/06 11:21:37;;;;;;;5.10;4.70;;;24.20;60.00;;;;;;5021923;28;43501;-62
2022/09/06 11:24:21;;;;;;;4.85;4.45;;;24.30;59.90;;;;;;5020039;28;43614;-63
2022/09/06 11:27:01;;;;;;;5.25;4.78;;;24.30;59.70;;;;;;5021384;28;44819;-62
2022/09/06 11:29:31;;;;;;;6.33;4.70;;;24.40;59.60;;;;;;5018046;28;43990;-63
2022/09/06 11:32:00;;;;;;;4.77;4.37;;;24.40;59.60;;;;;;5022836;28;43439;-63
2022/09/06 11:34:56;;;;;;;4.72;4.32;;;24.40;59.50;;;;;;5021678;28;43444;-63
2022/09/06 11:37:25;;;;;;;4.85;4.50;;;24.50;59.50;;;;;;5022178;28;44654;-63
2022/09/06 11:40:21;;;;;;;5.65;4.60;;;24.50;59.40;;;;;;5022841;28;43527;-62
2022/09/06 11:42:54;;;;;;;4.97;4.57;;;24.50;59.30;;;;;;5020326;28;43456;-63
2022/09/06 11:45:42;;;;;;;4.85;4.50;;;24.50;59.30;;;;;;5024146;28;43569;-63
2022/09/06 11:48:25;;;;;;;5.32;4.70;;;24.50;59.20;;;;;;5022618;28;44099;-62
2022/09/06 11:50:52;;;;;;;5.00;4.55;;;24.50;59.10;;;;;;5023422;28;43705;-63
2022/09/06 11:53:28;;;;;;;4.30;4.00;;;24.60;59.10;;;;;;5030140;28;43465;-63
2022/09/06 11:55:58;;;;;;;5.88;4.57;;;24.60;59.10;;;;;;5020656;28;43499;-63
2022/09/06 11:58:41;;;;;;;4.80;4.40;;;24.60;59.00;;;;;;5020858;28;43801;-63
2022/09/06 12:01:11;;;;;;;4.45;4.05;;;24.70;59.80;;;;;;5020613;28;43471;-62
2022/09/06 12:03:48;;;;;;;4.88;4.47;;;24.70;59.20;;;;;;5022895;28;43491;-63
2022/09/06 12:07:00;;;;;;;4.47;4.10;;;24.70;59.10;;;;;;5018232;28;43368;-62
2022/09/06 12:09:33;;;;;;;5.00;4.63;;;24.70;59.00;;;;;;5017062;28;44984;-62
2022/09/06 12:12:01;;;;;;;4.78;3.92;;;24.70;59.00;;;;;;5028696;28;43371;-63
2022/09/06 12:14:34;;;;;;;4.72;4.32;;;24.70;59.20;;;;;;5023453;28;43909;-63
2022/09/06 12:17:06;;;;;;;4.60;4.20;;;24.80;59.10;;;;;;5033744;28;43585;-62
2022/09/06 12:19:51;;;;;;;4.93;4.40;;;24.70;59.00;;;;;;5020630;28;44044;-62
2022/09/06 12:22:39;;;;;;;4.40;4.10;;;24.80;59.10;;;;;;5021843;28;43840;-62
2022/09/06 12:25:35;;;;;;;4.28;3.97;;;24.80;59.10;;;;;;5009674;28;43568;-62
2022/09/06 12:28:05;;;;;;;4.20;3.83;;;24.80;59.20;;;;;;5021820;28;43963;-63
2022/09/06 12:30:38;;;;;;;;;;;24.80;59.20;;;;;;5021799;28;44969;-63
2022/09/06 12:33:11;;;;;;;4.80;4.38;;;24.80;59.20;;;;;;5021492;28;43450;-62
2022/09/06 12:35:39;;;;;;;4.97;3.92;;;24.80;59.20;;;;;;5021658;28;43408;-63
2022/09/06 12:38:24;;;;;;;4.40;4.00;;;24.90;59.20;;;;;;5021516;28;43563;-63
2022/09/06 12:40:57;;;;;;;4.75;4.35;;;24.90;59.20;;;;;;5019543;28;46260;-63
2022/09/06 12:43:25;;;;;;;4.28;3.97;;;24.90;59.10;;;;;;5021599;28;43963;-62
2022/09/06 12:45:55;;;;;;;6.53;4.43;;;24.90;59.10;;;;;;5021654;28;43437;-63
2022/09/06 12:48:32;;;;;;;4.75;4.35;;;24.90;59.00;;;;;;5020603;28;43504;-63
2022/09/06 12:51:19;;;;;;;4.63;4.22;;;25.00;59.10;;;;;;5021629;28;44061;-63
2022/09/06 12:53:57;;;;;;;4.95;4.07;;;25.00;59.10;;;;;;5022420;28;43480;-63
2022/09/06 12:56:28;;;;;;;4.40;4.00;;;25.00;59.00;;;;;;5014285;28;43346;-63
2022/09/06 12:59:15;;;;;;;4.55;4.15;;;25.00;59.00;;;;;;5023617;28;43485;-62
2022/09/06 13:02:12;;;;;;;4.80;4.35;;;25.00;59.00;;;;;;5020170;28;43805;-63
2022/09/06 13:04:48;;;;;;;4.68;4.28;;;25.10;59.00;;;;;;5010867;28;44030;-62
2022/09/06 13:07:17;;;;;;;4.75;4.13;;;25.10;59.20;;;;;;5028645;28;43514;-63
2022/09/06 13:09:48;;;;;;;4.50;4.10;;;25.10;59.20;;;;;;5023093;28;43647;-63
2022/09/06 13:12:49;;;;;;;4.78;4.35;;;25.10;59.00;;;;;;5025260;28;44717;-62
2022/09/06 13:15:21;;;;;;;5.30;4.30;;;25.10;58.90;;;;;;4992338;28;43471;-63
2022/09/06 13:17:48;;;;;;;5.55;4.50;;;25.10;58.90;;;;;;5024323;28;43387;-62
2022/09/06 13:20:28;;;;;;;4.68;4.28;;;25.10;58.90;;;;;;5023951;28;44145;-63
2022/09/06 13:23:10;;;;;;;4.82;4.43;;;25.20;58.90;;;;;;5024103;28;44055;-63